createdAt,value
2022-10-08T00:00:59.546Z,1013.82
2022-10-08T00:01:59.602Z,1013.82
2022-10-08T00:02:59.537Z,1013.79
2022-10-08T00:03:59.607Z,1013.77
2022-10-08T00:04:59.546Z,1013.77
2022-10-08T00:05:59.536Z,1013.79
2022-10-08T00:06:59.531Z,1013.79
2022-10-08T00:07:59.522Z,1013.80
2022-10-08T00:08:59.528Z,1013.76
2022-10-08T00:09:59.537Z,1013.77
2022-10-08T00:10:59.528Z,1013.74
2022-10-08T00:11:59.517Z,1013.73
2022-10-08T00:12:59.515Z,1013.74
2022-10-08T00:13:59.512Z,1013.72
2022-10-08T00:14:59.503Z,1013.70
2022-10-08T00:15:59.593Z,1013.74
2022-10-08T00:16:59.500Z,1013.70
2022-10-08T00:17:59.495Z,1013.70
2022-10-08T00:18:59.498Z,1013.72
2022-10-08T00:19:59.493Z,1013.72
2022-10-08T00:20:59.491Z,1013.70
2022-10-08T00:21:59.493Z,1013.69
2022-10-08T00:22:59.489Z,1013.70
2022-10-08T00:23:59.510Z,1013.71
2022-10-08T00:24:59.501Z,1013.71
2022-10-08T00:25:59.586Z,1013.68
2022-10-08T00:26:59.498Z,1013.69
2022-10-08T00:27:59.515Z,1013.67
2022-10-08T00:28:59.467Z,1013.64
2022-10-08T00:29:59.478Z,1013.67
2022-10-08T00:30:59.468Z,1013.68
2022-10-08T00:31:59.574Z,1013.68
2022-10-08T00:33:00.144Z,1013.67
2022-10-08T00:33:59.461Z,1013.64
2022-10-08T00:34:59.458Z,1013.63
2022-10-08T00:35:59.445Z,1013.62
2022-10-08T00:36:59.444Z,1013.61
2022-10-08T00:37:59.442Z,1013.58
2022-10-08T00:38:59.446Z,1013.58
2022-10-08T00:39:59.448Z,1013.56
2022-10-08T00:40:59.433Z,1013.53
2022-10-08T00:41:59.466Z,1013.56
2022-10-08T00:42:59.433Z,1013.57
2022-10-08T00:43:59.426Z,1013.55
2022-10-08T00:44:59.425Z,1013.55
2022-10-08T00:45:59.493Z,1013.57
2022-10-08T00:46:59.430Z,1013.59
2022-10-08T00:47:59.427Z,1013.58
2022-10-08T00:48:59.421Z,1013.57
2022-10-08T00:49:59.419Z,1013.56
2022-10-08T00:50:59.408Z,1013.57
2022-10-08T00:51:59.405Z,1013.56
2022-10-08T00:52:59.408Z,1013.58
2022-10-08T00:53:59.406Z,1013.54
2022-10-08T00:54:59.400Z,1013.56
2022-10-08T00:55:59.400Z,1013.53
2022-10-08T00:56:59.404Z,1013.48
2022-10-08T00:57:59.418Z,1013.47
2022-10-08T00:58:59.387Z,1013.46
2022-10-08T00:59:59.394Z,1013.46
2022-10-08T01:00:59.475Z,1013.50
2022-10-08T01:01:59.467Z,1013.47
2022-10-08T01:02:59.394Z,1013.49
2022-10-08T01:03:59.374Z,1013.47
2022-10-08T01:04:59.392Z,1013.49
2022-10-08T01:05:59.380Z,1013.47
2022-10-08T01:06:59.369Z,1013.49
2022-10-08T01:07:59.368Z,1013.51
2022-10-08T01:08:59.365Z,1013.49
2022-10-08T01:09:59.364Z,1013.45
2022-10-08T01:10:59.361Z,1013.48
2022-10-08T01:11:59.361Z,1013.44
2022-10-08T01:12:59.357Z,1013.42
2022-10-08T01:13:59.373Z,1013.43
2022-10-08T01:14:59.342Z,1013.46
2022-10-08T01:15:59.402Z,1013.48
2022-10-08T01:16:59.344Z,1013.49
2022-10-08T01:17:59.354Z,1013.48
2022-10-08T01:18:59.341Z,1013.51
2022-10-08T01:19:59.338Z,1013.51
2022-10-08T01:20:59.338Z,1013.49
2022-10-08T01:21:59.331Z,1013.48
2022-10-08T01:22:59.321Z,1013.51
2022-10-08T01:23:59.329Z,1013.47
2022-10-08T01:24:59.326Z,1013.53
2022-10-08T01:25:59.331Z,1013.48
2022-10-08T01:26:59.316Z,1013.50
2022-10-08T01:27:59.402Z,1013.48
2022-10-08T01:28:59.308Z,1013.50
2022-10-08T01:29:59.331Z,1013.49
2022-10-08T01:30:59.309Z,1013.45
2022-10-08T01:31:59.379Z,1013.45
2022-10-08T01:32:59.295Z,1013.46
2022-10-08T01:33:59.300Z,1013.47
2022-10-08T01:34:59.299Z,1013.49
2022-10-08T01:35:59.290Z,1013.45
2022-10-08T01:36:59.293Z,1013.46
2022-10-08T01:37:59.285Z,1013.41
2022-10-08T01:38:59.290Z,1013.42
2022-10-08T01:39:59.280Z,1013.42
2022-10-08T01:40:59.280Z,1013.43
2022-10-08T01:41:59.274Z,1013.47
2022-10-08T01:42:59.269Z,1013.46
2022-10-08T01:43:59.278Z,1013.45
2022-10-08T01:44:59.263Z,1013.45
2022-10-08T01:45:59.374Z,1013.44
2022-10-08T01:46:59.280Z,1013.45
2022-10-08T01:47:59.267Z,1013.41
2022-10-08T01:48:59.264Z,1013.44
2022-10-08T01:49:59.250Z,1013.45
2022-10-08T01:50:59.263Z,1013.44
2022-10-08T01:51:59.251Z,1013.52
2022-10-08T01:52:59.245Z,1013.42
2022-10-08T01:53:59.244Z,1013.41
2022-10-08T01:54:59.236Z,1013.40
2022-10-08T01:55:59.246Z,1013.39
2022-10-08T01:56:59.231Z,1013.38
2022-10-08T01:57:59.230Z,1013.36
2022-10-08T01:58:59.251Z,1013.38
2022-10-08T01:59:59.238Z,1013.36
2022-10-08T02:00:59.277Z,1013.33
2022-10-08T02:01:59.317Z,1013.37
2022-10-08T02:02:59.230Z,1013.31
2022-10-08T02:03:59.214Z,1013.30
2022-10-08T02:04:59.308Z,1013.31
2022-10-08T02:05:59.207Z,1013.29
2022-10-08T02:06:59.209Z,1013.30
2022-10-08T02:07:59.210Z,1013.29
2022-10-08T02:08:59.199Z,1013.32
2022-10-08T02:09:59.210Z,1013.35
2022-10-08T02:10:59.253Z,1013.31
2022-10-08T02:11:59.222Z,1013.27
2022-10-08T02:12:59.196Z,1013.28
2022-10-08T02:13:59.192Z,1013.25
2022-10-08T02:14:59.193Z,1013.33
2022-10-08T02:15:59.188Z,1013.29
2022-10-08T02:16:59.190Z,1013.27
2022-10-08T02:17:59.194Z,1013.27
2022-10-08T02:18:59.183Z,1013.26
2022-10-08T02:19:59.172Z,1013.29
2022-10-08T02:20:59.185Z,1013.29
2022-10-08T02:21:59.174Z,1013.32
2022-10-08T02:22:59.177Z,1013.33
2022-10-08T02:23:59.167Z,1013.35
2022-10-08T02:24:59.163Z,1013.33
2022-10-08T02:25:59.155Z,1013.33
2022-10-08T02:26:59.155Z,1013.35
2022-10-08T02:27:59.416Z,1013.35
2022-10-08T02:28:59.154Z,1013.33
2022-10-08T02:29:59.147Z,1013.33
2022-10-08T02:30:59.139Z,1013.29
2022-10-08T02:31:59.196Z,1013.29
2022-10-08T02:32:59.139Z,1013.27
2022-10-08T02:33:59.152Z,1013.28
2022-10-08T02:34:59.132Z,1013.28
2022-10-08T02:35:59.134Z,1013.32
2022-10-08T02:36:59.131Z,1013.28
2022-10-08T02:37:59.130Z,1013.31
2022-10-08T02:38:59.142Z,1013.34
2022-10-08T02:39:59.115Z,1013.28
2022-10-08T02:40:59.125Z,1013.29
2022-10-08T02:41:59.121Z,1013.27
2022-10-08T02:42:59.117Z,1013.29
2022-10-08T02:43:59.110Z,1013.26
2022-10-08T02:44:59.116Z,1013.26
2022-10-08T02:45:59.173Z,1013.26
2022-10-08T02:46:59.105Z,1013.24
2022-10-08T02:47:59.100Z,1013.22
2022-10-08T02:48:59.100Z,1013.20
2022-10-08T02:49:59.120Z,1013.20
2022-10-08T02:50:59.092Z,1013.23
2022-10-08T02:51:59.089Z,1013.21
2022-10-08T02:52:59.102Z,1013.18
2022-10-08T02:53:59.086Z,1013.20
2022-10-08T02:54:59.084Z,1013.19
2022-10-08T02:55:59.078Z,1013.18
2022-10-08T02:56:59.073Z,1013.15
2022-10-08T02:57:59.073Z,1013.16
2022-10-08T02:58:59.088Z,1013.15
2022-10-08T02:59:59.064Z,1013.17
2022-10-08T03:00:59.110Z,1013.17
2022-10-08T03:01:59.140Z,1013.13
2022-10-08T03:02:59.058Z,1013.13
2022-10-08T03:03:59.058Z,1013.10
2022-10-08T03:04:59.065Z,1013.12
2022-10-08T03:05:59.066Z,1013.08
2022-10-08T03:06:59.045Z,1013.09
2022-10-08T03:07:59.048Z,1013.09
2022-10-08T03:08:59.045Z,1013.12
2022-10-08T03:09:59.039Z,1013.07
2022-10-08T03:10:59.044Z,1013.05
2022-10-08T03:11:59.029Z,1013.04
2022-10-08T03:12:59.033Z,1013.07
2022-10-08T03:13:59.022Z,1013.07
2022-10-08T03:14:59.026Z,1013.10
2022-10-08T03:15:59.015Z,1013.05
2022-10-08T03:16:59.106Z,1013.05
2022-10-08T03:17:59.009Z,1013.03
2022-10-08T03:18:59.018Z,1013.05
2022-10-08T03:19:59.013Z,1013.06
2022-10-08T03:20:59.013Z,1013.04
2022-10-08T03:21:59.026Z,1013.03
2022-10-08T03:22:59.001Z,1013.00
2022-10-08T03:23:59.010Z,1013.09
2022-10-08T03:24:58.995Z,1013.03
2022-10-08T03:25:59.002Z,1013.10
2022-10-08T03:26:59.015Z,1013.08
2022-10-08T03:27:58.993Z,1013.10
2022-10-08T03:28:58.989Z,1013.08
2022-10-08T03:29:58.978Z,1013.08
2022-10-08T03:30:59.100Z,1013.09
2022-10-08T03:31:58.980Z,1013.11
2022-10-08T03:32:59.002Z,1013.11
2022-10-08T03:33:58.974Z,1013.06
2022-10-08T03:34:58.980Z,1013.07
2022-10-08T03:35:58.966Z,1013.08
2022-10-08T03:36:58.968Z,1013.05
2022-10-08T03:37:59.000Z,1013.09
2022-10-08T03:38:58.954Z,1013.10
2022-10-08T03:39:58.956Z,1013.09
2022-10-08T03:40:58.966Z,1013.12
2022-10-08T03:41:58.954Z,1013.14
2022-10-08T03:42:58.950Z,1013.15
2022-10-08T03:43:58.943Z,1013.11
2022-10-08T03:44:58.939Z,1013.18
2022-10-08T03:45:58.980Z,1013.20
2022-10-08T03:46:58.934Z,1013.17
2022-10-08T03:47:58.931Z,1013.20
2022-10-08T03:48:58.938Z,1013.20
2022-10-08T03:49:58.937Z,1013.19
2022-10-08T03:50:58.932Z,1013.19
2022-10-08T03:51:58.928Z,1013.21
2022-10-08T03:52:58.916Z,1013.24
2022-10-08T03:53:58.946Z,1013.22
2022-10-08T03:54:58.912Z,1013.25
2022-10-08T03:55:58.915Z,1013.25
2022-10-08T03:56:58.914Z,1013.22
2022-10-08T03:57:58.902Z,1013.24
2022-10-08T03:58:58.916Z,1013.21
2022-10-08T03:59:58.896Z,1013.23
2022-10-08T04:00:58.907Z,1013.26
2022-10-08T04:01:58.893Z,1013.22
2022-10-08T04:02:59.006Z,1013.24
2022-10-08T04:03:58.893Z,1013.25
2022-10-08T04:04:58.889Z,1013.31
2022-10-08T04:05:58.888Z,1013.29
2022-10-08T04:06:58.875Z,1013.36
2022-10-08T04:07:58.882Z,1013.39
2022-10-08T04:08:58.872Z,1013.38
2022-10-08T04:09:58.898Z,1013.42
2022-10-08T04:10:58.876Z,1013.46
2022-10-08T04:11:58.863Z,1013.46
2022-10-08T04:12:58.869Z,1013.49
2022-10-08T04:13:58.865Z,1013.48
2022-10-08T04:14:58.868Z,1013.50
2022-10-08T04:15:58.901Z,1013.52
2022-10-08T04:16:58.851Z,1013.54
2022-10-08T04:17:58.854Z,1013.60
2022-10-08T04:18:58.846Z,1013.64
2022-10-08T04:19:58.846Z,1013.65
2022-10-08T04:20:58.851Z,1013.62
2022-10-08T04:21:58.836Z,1013.59
2022-10-08T04:22:58.844Z,1013.60
2022-10-08T04:23:58.860Z,1013.65
2022-10-08T04:24:58.826Z,1013.66
2022-10-08T04:25:58.846Z,1013.63
2022-10-08T04:26:58.830Z,1013.55
2022-10-08T04:27:58.820Z,1013.63
2022-10-08T04:28:58.818Z,1013.61
2022-10-08T04:29:58.821Z,1013.63
2022-10-08T04:30:58.849Z,1013.68
2022-10-08T04:31:58.807Z,1013.68
2022-10-08T04:32:58.812Z,1013.65
2022-10-08T04:33:58.805Z,1013.69
2022-10-08T04:34:58.811Z,1013.71
2022-10-08T04:36:00.275Z,1013.73
2022-10-08T04:36:58.794Z,1013.76
2022-10-08T04:37:58.797Z,1013.75
2022-10-08T04:38:58.796Z,1013.80
2022-10-08T04:39:58.794Z,1013.81
2022-10-08T04:40:58.782Z,1013.76
2022-10-08T04:41:58.923Z,1013.77
2022-10-08T04:42:58.780Z,1013.84
2022-10-08T04:43:58.779Z,1013.83
2022-10-08T04:44:58.778Z,1013.86
2022-10-08T04:45:58.822Z,1013.85
2022-10-08T04:46:58.786Z,1013.84
2022-10-08T04:47:58.768Z,1013.89
2022-10-08T04:48:58.770Z,1013.81
2022-10-08T04:49:58.764Z,1013.83
2022-10-08T04:50:58.758Z,1013.84
2022-10-08T04:51:58.750Z,1013.82
2022-10-08T04:52:58.750Z,1013.87
2022-10-08T04:53:58.747Z,1013.85
2022-10-08T04:54:58.744Z,1013.82
2022-10-08T04:55:58.746Z,1013.83
2022-10-08T04:56:58.738Z,1013.91
2022-10-08T04:57:58.759Z,1013.96
2022-10-08T04:58:58.734Z,1013.97
2022-10-08T05:00:17.060Z,1013.94
2022-10-08T05:00:58.733Z,1013.94
2022-10-08T05:01:58.753Z,1013.98
2022-10-08T05:02:58.766Z,1014.02
2022-10-08T05:03:58.725Z,1013.99
2022-10-08T05:04:58.715Z,1014.02
2022-10-08T05:05:58.720Z,1014.02
2022-10-08T05:06:58.712Z,1014.03
2022-10-08T05:07:58.719Z,1014.04
2022-10-08T05:08:58.711Z,1014.00
2022-10-08T05:09:58.713Z,1014.01
2022-10-08T05:10:58.700Z,1014.03
2022-10-08T05:11:58.711Z,1014.01
2022-10-08T05:12:58.703Z,1014.04
2022-10-08T05:13:58.715Z,1014.07
2022-10-08T05:14:58.689Z,1014.01
2022-10-08T05:15:58.743Z,1013.99
2022-10-08T05:16:58.684Z,1014.00
2022-10-08T05:17:58.688Z,1013.95
2022-10-08T05:18:58.678Z,1013.96
2022-10-08T05:19:58.677Z,1013.92
2022-10-08T05:20:58.674Z,1014.01
2022-10-08T05:21:58.674Z,1013.98
2022-10-08T05:22:58.674Z,1013.98
2022-10-08T05:23:58.663Z,1014.03
2022-10-08T05:24:58.665Z,1014.02
2022-10-08T05:25:58.675Z,1014.03
2022-10-08T05:26:59.394Z,1014.06
2022-10-08T05:27:58.653Z,1014.07
2022-10-08T05:28:58.674Z,1014.01
2022-10-08T05:29:58.672Z,1014.06
2022-10-08T05:30:58.703Z,1014.05
2022-10-08T05:31:58.649Z,1014.09
2022-10-08T05:32:58.656Z,1014.10
2022-10-08T05:33:58.641Z,1014.06
2022-10-08T05:34:58.659Z,1014.08
2022-10-08T05:35:58.641Z,1014.11
2022-10-08T05:36:58.660Z,1014.10
2022-10-08T05:37:58.630Z,1014.03
2022-10-08T05:38:58.628Z,1014.05
2022-10-08T05:39:58.624Z,1014.08
2022-10-08T05:40:58.623Z,1014.08
2022-10-08T05:41:58.620Z,1014.08
2022-10-08T05:42:58.618Z,1014.07
2022-10-08T05:43:58.618Z,1014.08
2022-10-08T05:44:58.625Z,1014.12
2022-10-08T05:45:58.624Z,1014.14
2022-10-08T05:46:58.706Z,1014.09
2022-10-08T05:47:58.600Z,1014.10
2022-10-08T05:48:58.603Z,1014.12
2022-10-08T05:49:58.607Z,1014.11
2022-10-08T05:50:58.596Z,1014.08
2022-10-08T05:51:58.594Z,1014.09
2022-10-08T05:52:58.595Z,1014.14
2022-10-08T05:53:58.580Z,1014.15
2022-10-08T05:54:58.590Z,1014.15
2022-10-08T05:55:58.580Z,1014.15
2022-10-08T05:56:58.619Z,1014.15
2022-10-08T05:57:58.573Z,1014.17
2022-10-08T05:58:58.572Z,1014.14
2022-10-08T05:59:58.571Z,1014.18
2022-10-08T06:00:58.572Z,1014.18
2022-10-08T06:01:58.597Z,1014.20
2022-10-08T06:02:58.576Z,1014.20
2022-10-08T06:03:58.555Z,1014.19
2022-10-08T06:04:58.669Z,1014.19
2022-10-08T06:05:58.569Z,1014.21
2022-10-08T06:06:58.552Z,1014.28
2022-10-08T06:07:58.540Z,1014.34
2022-10-08T06:08:58.549Z,1014.37
2022-10-08T06:09:58.542Z,1014.40
2022-10-08T06:10:58.537Z,1014.45
2022-10-08T06:11:58.530Z,1014.47
2022-10-08T06:12:58.538Z,1014.51
2022-10-08T06:13:58.529Z,1014.48
2022-10-08T06:14:58.521Z,1014.49
2022-10-08T06:15:58.615Z,1014.49
2022-10-08T06:16:58.514Z,1014.47
2022-10-08T06:17:58.544Z,1014.49
2022-10-08T06:18:58.514Z,1014.46
2022-10-08T06:19:58.511Z,1014.46
2022-10-08T06:20:58.505Z,1014.51
2022-10-08T06:21:58.513Z,1014.49
2022-10-08T06:22:58.502Z,1014.53
2022-10-08T06:23:58.504Z,1014.55
2022-10-08T06:24:58.497Z,1014.54
2022-10-08T06:25:58.498Z,1014.53
2022-10-08T06:26:58.498Z,1014.52
2022-10-08T06:27:58.497Z,1014.51
2022-10-08T06:28:58.486Z,1014.53
2022-10-08T06:29:58.488Z,1014.53
2022-10-08T06:30:58.510Z,1014.61
2022-10-08T06:31:58.487Z,1014.64
2022-10-08T06:32:58.471Z,1014.66
2022-10-08T06:33:58.493Z,1014.70
2022-10-08T06:34:58.467Z,1014.68
2022-10-08T06:35:58.469Z,1014.73
2022-10-08T06:36:58.466Z,1014.75
2022-10-08T06:37:58.470Z,1014.72
2022-10-08T06:38:58.461Z,1014.76
2022-10-08T06:39:58.452Z,1014.77
2022-10-08T06:40:58.450Z,1014.78
2022-10-08T06:41:58.460Z,1014.80
2022-10-08T06:42:58.446Z,1014.78
2022-10-08T06:43:58.441Z,1014.83
2022-10-08T06:45:02.037Z,1014.81
2022-10-08T06:45:58.440Z,1014.83
2022-10-08T06:46:58.481Z,1014.89
2022-10-08T06:47:58.435Z,1014.89
2022-10-08T06:48:58.437Z,1014.91
2022-10-08T06:49:58.453Z,1014.94
2022-10-08T06:50:58.422Z,1014.92
2022-10-08T06:51:58.430Z,1014.94
2022-10-08T06:52:58.426Z,1014.98
2022-10-08T06:54:02.909Z,1015.00
2022-10-08T06:54:58.426Z,1015.02
2022-10-08T06:55:58.413Z,1015.04
2022-10-08T06:56:58.414Z,1015.07
2022-10-08T06:57:58.420Z,1015.10
2022-10-08T06:58:58.419Z,1015.12
2022-10-08T06:59:58.405Z,1015.11
2022-10-08T07:00:58.435Z,1015.13
2022-10-08T07:01:58.437Z,1015.15
2022-10-08T07:02:58.397Z,1015.18
2022-10-08T07:03:58.396Z,1015.19
2022-10-08T07:04:58.393Z,1015.20
2022-10-08T07:05:58.416Z,1015.17
2022-10-08T07:06:58.397Z,1015.27
2022-10-08T07:07:58.387Z,1015.26
2022-10-08T07:08:58.376Z,1015.24
2022-10-08T07:09:58.373Z,1015.30
2022-10-08T07:10:58.377Z,1015.29
2022-10-08T07:11:58.373Z,1015.34
2022-10-08T07:12:58.365Z,1015.34
2022-10-08T07:13:58.363Z,1015.34
2022-10-08T07:14:58.368Z,1015.35
2022-10-08T07:15:58.381Z,1015.36
2022-10-08T07:16:58.365Z,1015.46
2022-10-08T07:17:58.377Z,1015.44
2022-10-08T07:18:58.750Z,1015.42
2022-10-08T07:19:58.352Z,1015.43
2022-10-08T07:20:58.343Z,1015.40
2022-10-08T07:22:01.337Z,1015.46
2022-10-08T07:22:58.342Z,1015.47
2022-10-08T07:23:58.341Z,1015.48
2022-10-08T07:24:58.331Z,1015.51
2022-10-08T07:25:58.339Z,1015.51
2022-10-08T07:26:58.333Z,1015.49
2022-10-08T07:27:58.332Z,1015.50
2022-10-08T07:28:58.327Z,1015.50
2022-10-08T07:29:58.322Z,1015.48
2022-10-08T07:30:58.318Z,1015.52
2022-10-08T07:31:58.373Z,1015.52
2022-10-08T07:32:58.314Z,1015.54
2022-10-08T07:33:58.309Z,1015.55
2022-10-08T07:35:00.115Z,1015.54
2022-10-08T07:35:58.302Z,1015.60
2022-10-08T07:36:58.308Z,1015.60
2022-10-08T07:37:58.315Z,1015.64
2022-10-08T07:38:58.297Z,1015.66
2022-10-08T07:39:58.297Z,1015.71
2022-10-08T07:41:44.732Z,1015.73
2022-10-08T07:42:45.101Z,1015.77
2022-10-08T07:43:44.717Z,1015.82
2022-10-08T07:44:44.724Z,1015.87
2022-10-08T07:45:44.813Z,1015.88
2022-10-08T07:46:44.710Z,1015.89
2022-10-08T07:47:44.725Z,1015.87
2022-10-08T07:48:44.711Z,1015.90
2022-10-08T07:49:44.707Z,1015.92
2022-10-08T07:50:44.702Z,1015.90
2022-10-08T07:51:44.710Z,1015.89
2022-10-08T07:52:45.047Z,1015.89
2022-10-08T07:53:44.790Z,1015.95
2022-10-08T07:54:44.692Z,1015.93
2022-10-08T07:55:44.688Z,1015.92
2022-10-08T07:56:44.695Z,1015.97
2022-10-08T07:57:44.679Z,1015.97
2022-10-08T07:58:44.675Z,1016.03
2022-10-08T07:59:44.682Z,1016.00
2022-10-08T08:00:44.745Z,1016.05
2022-10-08T08:01:44.750Z,1016.08
2022-10-08T08:02:44.975Z,1016.09
2022-10-08T08:03:44.673Z,1016.08
2022-10-08T08:04:44.670Z,1016.07
2022-10-08T08:05:44.670Z,1016.04
2022-10-08T08:06:44.657Z,1016.05
2022-10-08T08:07:44.662Z,1016.12
2022-10-08T08:08:44.666Z,1016.13
2022-10-08T08:09:44.678Z,1016.19
2022-10-08T08:10:44.661Z,1016.19
2022-10-08T08:11:44.651Z,1016.15
2022-10-08T08:12:45.038Z,1016.21
2022-10-08T08:13:44.651Z,1016.19
2022-10-08T08:14:44.662Z,1016.18
2022-10-08T08:15:44.647Z,1016.23
2022-10-08T08:16:44.772Z,1016.25
2022-10-08T08:17:44.632Z,1016.30
2022-10-08T08:18:44.635Z,1016.27
2022-10-08T08:19:44.639Z,1016.27
2022-10-08T08:20:44.625Z,1016.26
2022-10-08T08:21:44.632Z,1016.23
2022-10-08T08:22:45.025Z,1016.29
2022-10-08T08:23:44.624Z,1016.27
2022-10-08T08:24:44.673Z,1016.38
2022-10-08T08:25:44.644Z,1016.36
2022-10-08T08:26:44.618Z,1016.35
2022-10-08T08:27:44.617Z,1016.34
2022-10-08T08:28:44.652Z,1016.35
2022-10-08T08:29:44.614Z,1016.33
2022-10-08T08:30:44.611Z,1016.36
2022-10-08T08:31:44.767Z,1016.36
2022-10-08T08:32:44.946Z,1016.40
2022-10-08T08:33:44.601Z,1016.41
2022-10-08T08:34:44.595Z,1016.46
2022-10-08T08:35:44.598Z,1016.45
2022-10-08T08:36:44.618Z,1016.45
2022-10-08T08:37:44.607Z,1016.44
2022-10-08T08:38:44.597Z,1016.44
2022-10-08T08:39:44.600Z,1016.43
2022-10-08T08:40:44.584Z,1016.45
2022-10-08T08:41:44.604Z,1016.46
2022-10-08T08:42:44.925Z,1016.52
2022-10-08T08:43:44.588Z,1016.53
2022-10-08T08:44:44.589Z,1016.50
2022-10-08T08:45:47.155Z,1016.60
2022-10-08T08:46:44.653Z,1016.56
2022-10-08T08:47:44.576Z,1016.56
2022-10-08T08:48:44.576Z,1016.58
2022-10-08T08:49:44.578Z,1016.58
2022-10-08T08:50:48.632Z,1016.57
2022-10-08T08:51:44.567Z,1016.58
2022-10-08T08:52:44.889Z,1016.62
2022-10-08T08:53:44.572Z,1016.62
2022-10-08T08:54:44.573Z,1016.63
2022-10-08T08:55:44.619Z,1016.67
2022-10-08T08:56:44.557Z,1016.64
2022-10-08T08:57:44.581Z,1016.67
2022-10-08T08:58:44.561Z,1016.67
2022-10-08T08:59:44.550Z,1016.68
2022-10-08T09:00:44.588Z,1016.72
2022-10-08T09:01:44.551Z,1016.67
2022-10-08T09:02:44.996Z,1016.63
2022-10-08T09:03:44.555Z,1016.67
2022-10-08T09:04:45.495Z,1016.65
2022-10-08T09:05:44.615Z,1016.67
2022-10-08T09:06:44.550Z,1016.68
2022-10-08T09:07:44.541Z,1016.72
2022-10-08T09:08:44.543Z,1016.73
2022-10-08T09:09:44.542Z,1016.69
2022-10-08T09:10:44.549Z,1016.73
2022-10-08T09:11:44.533Z,1016.75
2022-10-08T09:12:44.971Z,1016.74
2022-10-08T09:13:44.550Z,1016.74
2022-10-08T09:14:44.729Z,1016.77
2022-10-08T09:15:44.533Z,1016.84
2022-10-08T09:16:44.623Z,1016.78
2022-10-08T09:17:44.667Z,1016.79
2022-10-08T09:18:44.532Z,1016.79
2022-10-08T09:19:44.654Z,1016.82
2022-10-08T09:20:44.531Z,1016.81
2022-10-08T09:21:44.516Z,1016.95
2022-10-08T09:22:44.778Z,1016.91
2022-10-08T09:23:44.512Z,1016.89
2022-10-08T09:24:44.514Z,1016.90
2022-10-08T09:25:44.514Z,1016.80
2022-10-08T09:26:44.502Z,1016.79
2022-10-08T09:27:44.511Z,1016.89
2022-10-08T09:28:44.747Z,1016.90
2022-10-08T09:29:44.525Z,1016.89
2022-10-08T09:30:44.557Z,1016.83
2022-10-08T09:31:44.506Z,1016.91
2022-10-08T09:32:44.685Z,1016.87
2022-10-08T09:33:44.494Z,1016.90
2022-10-08T09:34:44.497Z,1016.94
2022-10-08T09:35:44.500Z,1016.96
2022-10-08T09:36:44.485Z,1016.97
2022-10-08T09:37:44.486Z,1016.99
2022-10-08T09:38:44.488Z,1016.99
2022-10-08T09:39:44.506Z,1016.97
2022-10-08T09:40:44.485Z,1017.07
2022-10-08T09:41:44.482Z,1017.09
2022-10-08T09:42:44.702Z,1017.08
2022-10-08T09:43:44.484Z,1017.06
2022-10-08T09:44:44.482Z,1017.08
2022-10-08T09:45:44.565Z,1017.06
2022-10-08T09:46:44.465Z,1017.09
2022-10-08T09:47:44.472Z,1017.10
2022-10-08T09:48:44.462Z,1017.13
2022-10-08T09:49:44.471Z,1017.13
2022-10-08T09:50:44.468Z,1017.14
2022-10-08T09:51:44.465Z,1017.14
2022-10-08T09:52:44.868Z,1017.16
2022-10-08T09:53:44.463Z,1017.25
2022-10-08T09:54:44.456Z,1017.20
2022-10-08T09:55:44.454Z,1017.20
2022-10-08T09:56:44.450Z,1017.21
2022-10-08T09:57:44.459Z,1017.23
2022-10-08T09:58:44.443Z,1017.22
2022-10-08T09:59:44.448Z,1017.23
2022-10-08T10:00:44.442Z,1017.25
2022-10-08T10:01:44.514Z,1017.28
2022-10-08T10:02:44.735Z,1017.25
2022-10-08T10:03:44.473Z,1017.26
2022-10-08T10:04:44.441Z,1017.31
2022-10-08T10:05:44.432Z,1017.27
2022-10-08T10:06:44.433Z,1017.26
2022-10-08T10:07:44.443Z,1017.30
2022-10-08T10:08:44.435Z,1017.31
2022-10-08T10:09:44.427Z,1017.33
2022-10-08T10:10:44.424Z,1017.37
2022-10-08T10:11:44.427Z,1017.26
2022-10-08T10:12:44.731Z,1017.25
2022-10-08T10:13:44.418Z,1017.23
2022-10-08T10:14:44.429Z,1017.27
2022-10-08T10:15:44.428Z,1017.26
2022-10-08T10:16:44.501Z,1017.21
2022-10-08T10:17:44.425Z,1017.18
2022-10-08T10:18:44.420Z,1017.16
2022-10-08T10:19:44.411Z,1017.09
2022-10-08T10:20:44.411Z,1017.15
2022-10-08T10:21:44.412Z,1017.18
2022-10-08T10:22:44.610Z,1017.14
2022-10-08T10:23:44.401Z,1017.13
2022-10-08T10:24:44.403Z,1017.13
2022-10-08T10:25:44.411Z,1017.20
2022-10-08T10:26:44.398Z,1017.21
2022-10-08T10:27:44.389Z,1017.22
2022-10-08T10:28:44.484Z,1017.26
2022-10-08T10:29:44.395Z,1017.25
2022-10-08T10:30:44.473Z,1017.29
2022-10-08T10:31:44.389Z,1017.32
2022-10-08T10:32:44.612Z,1017.23
2022-10-08T10:33:44.412Z,1017.20
2022-10-08T10:34:44.383Z,1017.24
2022-10-08T10:35:44.379Z,1017.30
2022-10-08T10:36:44.383Z,1017.31
2022-10-08T10:37:44.372Z,1017.35
2022-10-08T10:38:44.376Z,1017.33
2022-10-08T10:39:44.366Z,1017.36
2022-10-08T10:40:44.364Z,1017.35
2022-10-08T10:41:44.374Z,1017.29
2022-10-08T10:42:44.419Z,1017.37
2022-10-08T10:43:44.360Z,1017.34
2022-10-08T10:44:44.356Z,1017.32
2022-10-08T10:45:44.479Z,1017.32
2022-10-08T10:46:44.351Z,1017.36
2022-10-08T10:47:44.366Z,1017.39
2022-10-08T10:48:44.355Z,1017.41
2022-10-08T10:49:44.376Z,1017.44
2022-10-08T10:50:44.344Z,1017.40
2022-10-08T10:51:44.353Z,1017.37
2022-10-08T10:52:44.604Z,1017.45
2022-10-08T10:53:44.338Z,1017.36
2022-10-08T10:54:44.337Z,1017.43
2022-10-08T10:55:44.344Z,1017.43
2022-10-08T10:56:44.337Z,1017.40
2022-10-08T10:57:44.330Z,1017.41
2022-10-08T10:58:44.331Z,1017.42
2022-10-08T10:59:44.324Z,1017.40
2022-10-08T11:00:44.331Z,1017.39
2022-10-08T11:01:44.398Z,1017.39
2022-10-08T11:02:44.484Z,1017.39
2022-10-08T11:03:44.332Z,1017.38
2022-10-08T11:04:44.326Z,1017.38
2022-10-08T11:05:44.334Z,1017.35
2022-10-08T11:06:44.318Z,1017.39
2022-10-08T11:07:44.315Z,1017.41
2022-10-08T11:08:44.332Z,1017.41
2022-10-08T11:09:44.305Z,1017.44
2022-10-08T11:10:44.318Z,1017.41
2022-10-08T11:11:44.312Z,1017.50
2022-10-08T11:12:44.394Z,1017.52
2022-10-08T11:13:44.301Z,1017.50
2022-10-08T11:14:44.305Z,1017.48
2022-10-08T11:15:44.375Z,1017.50
2022-10-08T11:16:44.297Z,1017.47
2022-10-08T11:17:44.288Z,1017.50
2022-10-08T11:18:44.290Z,1017.49
2022-10-08T11:19:44.303Z,1017.46
2022-10-08T11:20:44.295Z,1017.46
2022-10-08T11:21:44.299Z,1017.43
2022-10-08T11:22:44.345Z,1017.48
2022-10-08T11:23:44.292Z,1017.49
2022-10-08T11:24:44.274Z,1017.48
2022-10-08T11:26:09.915Z,1017.48
2022-10-08T11:26:44.267Z,1017.48
2022-10-08T11:27:44.273Z,1017.44
2022-10-08T11:28:44.348Z,1017.44
2022-10-08T11:29:44.270Z,1017.44
2022-10-08T11:30:44.334Z,1017.53
2022-10-08T11:31:44.269Z,1017.48
2022-10-08T11:32:44.342Z,1017.46
2022-10-08T11:33:44.258Z,1017.46
2022-10-08T11:34:44.264Z,1017.50
2022-10-08T11:35:44.253Z,1017.50
2022-10-08T11:36:44.254Z,1017.46
2022-10-08T11:37:44.326Z,1017.48
2022-10-08T11:38:44.245Z,1017.50
2022-10-08T11:39:44.243Z,1017.52
2022-10-08T11:40:44.249Z,1017.54
2022-10-08T11:41:44.246Z,1017.53
2022-10-08T11:42:48.318Z,1017.48
2022-10-08T11:43:44.235Z,1017.64
2022-10-08T11:44:44.232Z,1017.50
2022-10-08T11:45:44.239Z,1017.58
2022-10-08T11:46:44.227Z,1017.59
2022-10-08T11:47:44.240Z,1017.58
2022-10-08T11:48:44.221Z,1017.60
2022-10-08T11:49:44.227Z,1017.49
2022-10-08T11:50:44.223Z,1017.53
2022-10-08T11:51:44.215Z,1017.53
2022-10-08T11:52:44.502Z,1017.55
2022-10-08T11:53:44.356Z,1017.59
2022-10-08T11:54:44.218Z,1017.55
2022-10-08T11:55:44.222Z,1017.56
2022-10-08T11:56:44.217Z,1017.54
2022-10-08T11:58:06.757Z,1017.55
2022-10-08T11:58:44.216Z,1017.56
2022-10-08T11:59:44.206Z,1017.58
2022-10-08T12:00:44.204Z,1017.56
2022-10-08T12:02:26.156Z,1017.58
2022-10-08T12:03:26.263Z,1017.54
2022-10-08T12:04:26.069Z,1017.60
2022-10-08T12:05:26.059Z,1017.62
2022-10-08T12:06:26.064Z,1017.55
2022-10-08T12:07:26.059Z,1017.60